Time;durP1;ratioP1;P1;durP2;ratioP2;P2;SDS_P1;SDS_P2;PMS_P1;PMS_P2;Temp;Humidity;BMP_temperature;BMP_pressure;BME280_temperature;BME280_humidity;BME280_pressure;Samples;Min_cycle;Max_cycle;Signal;HPM_P1;HPM_P2
2022/07/30 00:02:21;;;;;;;18.33;6.25;;;;;;;19.20;63.21;101246.34;5092962;28;20048;-58
2022/07/30 00:04:47;;;;;;;19.88;6.80;;;;;;;19.24;64.12;101244.91;5091842;28;20052;-58
2022/07/30 00:07:14;;;;;;;14.90;6.90;;;;;;;19.18;65.21;101251.09;5091372;28;20401;-58
2022/07/30 00:09:41;;;;;;;17.50;6.07;;;;;;;19.08;65.45;101242.53;5092653;28;20040;-59
2022/07/30 00:12:08;;;;;;;15.95;6.63;;;;;;;19.03;65.84;101240.47;5093081;28;20040;-58
2022/07/30 00:14:36;;;;;;;16.23;6.38;;;;;;;18.93;66.16;101238.09;5096243;28;20051;-58
2022/07/30 00:17:04;;;;;;;17.48;6.90;;;;;;;18.94;66.43;101242.47;5096004;28;20433;-58
2022/07/30 00:19:30;;;;;;;12.57;6.03;;;;;;;18.94;66.47;101238.97;5096123;28;20127;-60
2022/07/30 00:21:57;;;;;;;14.20;6.72;;;;;;;18.82;66.68;101237.84;5096310;28;20043;-59
2022/07/30 00:24:24;;;;;;;18.85;8.05;;;;;;;18.81;66.31;101231.63;5096025;28;20056;-60
2022/07/30 00:26:50;;;;;;;16.60;7.28;;;;;;;18.75;66.99;101235.06;5104186;28;20044;-60
2022/07/30 00:29:17;;;;;;;19.48;7.25;;;;;;;18.67;66.82;101232.53;5075537;28;20483;-60
2022/07/30 00:31:44;;;;;;;22.13;7.45;;;;;;;18.53;66.88;101229.72;5075254;28;20095;-60
2022/07/30 00:34:11;;;;;;;18.52;7.57;;;;;;;18.55;67.35;101235.75;5075601;28;20544;-60
2022/07/30 00:36:39;;;;;;;15.10;6.90;;;;;;;18.53;67.25;101234.28;5075516;28;20123;-59
2022/07/30 00:39:06;;;;;;;21.90;7.32;;;;;;;18.49;67.81;101230.34;5075865;28;20478;-60
2022/07/30 00:41:33;;;;;;;17.63;8.13;;;;;;;18.50;68.54;101234.66;5075443;28;20568;-59
2022/07/30 00:43:59;;;;;;;17.73;8.23;;;;;;;18.46;67.47;101233.41;5075695;28;20103;-59
2022/07/30 00:46:27;;;;;;;18.77;7.80;;;;;;;18.40;67.97;101238.50;5075035;28;20063;-59
2022/07/30 00:48:53;;;;;;;17.20;7.43;;;;;;;18.40;68.16;101238.50;5075650;28;20551;-58
2022/07/30 00:51:20;;;;;;;19.35;7.90;;;;;;;18.36;68.23;101233.75;5083928;28;20386;-59
2022/07/30 00:53:47;;;;;;;17.75;7.47;;;;;;;18.33;68.60;101232.25;5095898;28;20051;-59
2022/07/30 00:56:13;;;;;;;16.83;7.80;;;;;;;18.30;68.81;101239.88;5094900;28;20056;-59
2022/07/30 00:58:40;;;;;;;13.93;7.70;;;;;;;18.23;69.27;101231.78;5095667;28;20101;-59
2022/07/30 01:01:07;;;;;;;19.35;7.97;;;;;;;18.25;69.05;101240.47;5094128;28;20039;-58
2022/07/30 01:03:36;;;;;;;19.40;8.23;;;;;;;18.24;69.83;101238.78;5091902;28;20040;-59
2022/07/30 01:06:03;;;;;;;21.73;8.05;;;;;;;18.19;70.29;101242.06;5094718;28;20048;-59
2022/07/30 01:08:29;;;;;;;14.27;7.82;;;;;;;18.21;69.96;101244.56;5095318;28;20055;-59
2022/07/30 01:10:56;;;;;;;25.77;8.43;;;;;;;18.20;70.10;101245.56;5095079;28;20048;-59
2022/07/30 01:13:24;;;;;;;21.13;8.90;;;;;;;18.20;70.54;101248.25;5094988;28;20040;-59
2022/07/30 01:15:52;;;;;;;21.75;8.43;;;;;;;18.14;70.94;101241.81;5094822;28;20059;-59
2022/07/30 01:18:21;;;;;;;18.85;8.93;;;;;;;18.10;71.05;101243.22;5095038;28;20036;-59
2022/07/30 01:21:06;;;;;;;20.52;8.23;;;;;;;18.08;71.20;101239.03;5095041;28;20506;-59
2022/07/30 01:23:40;;;;;;;26.17;10.70;;;;;;;18.14;71.40;101236.44;5094958;28;20452;-59
2022/07/30 01:26:09;;;;;;;22.08;9.45;;;;;;;18.05;71.97;101240.28;5094714;28;20048;-59
2022/07/30 01:28:41;;;;;;;24.88;10.00;;;;;;;17.99;72.34;101244.56;5094823;28;20044;-59
2022/07/30 01:31:11;;;;;;;28.23;10.57;;;;;;;18.03;72.01;101242.31;5094779;28;20036;-58
2022/07/30 01:33:43;;;;;;;20.13;10.20;;;;;;;17.94;72.22;101240.78;5094348;28;20044;-59
2022/07/30 01:36:15;;;;;;;26.25;11.27;;;;;;;17.81;72.83;101230.72;5094678;28;20040;-58
2022/07/30 01:38:45;;;;;;;21.98;10.80;;;;;;;17.79;72.57;101235.41;5094585;28;20397;-58
2022/07/30 01:41:14;;;;;;;23.52;11.48;;;;;;;17.94;71.61;101238.91;5094691;28;20050;-58
2022/07/30 01:43:43;;;;;;;23.63;11.35;;;;;;;17.93;71.94;101247.97;5094580;28;20489;-59
2022/07/30 01:46:11;;;;;;;27.10;11.98;;;;;;;17.96;71.17;101246.78;5094473;28;20046;-59
2022/07/30 01:48:41;;;;;;;20.40;11.60;;;;;;;17.91;71.63;101241.97;5094182;28;20058;-59
2022/07/30 01:51:11;;;;;;;22.95;11.80;;;;;;;17.84;71.40;101252.63;5094614;28;20051;-58
2022/07/30 01:53:42;;;;;;;22.40;11.95;;;;;;;17.76;71.66;101249.22;5094386;28;20047;-59
2022/07/30 01:56:12;;;;;;;27.88;12.73;;;;;;;17.69;71.60;101251.00;5094067;28;20051;-59
2022/07/30 01:58:41;;;;;;;27.30;13.05;;;;;;;17.73;71.70;101255.78;5094406;28;20051;-59
2022/07/30 02:01:17;;;;;;;28.85;12.55;;;;;;;17.72;71.59;101256.81;5093955;28;20063;-59
2022/07/30 02:03:45;;;;;;;23.15;12.70;;;;;;;17.68;71.48;101258.19;5093797;28;20079;-59
2022/07/30 02:06:19;;;;;;;23.60;12.88;;;;;;;17.61;71.71;101257.31;5089575;28;20056;-59
2022/07/30 02:08:54;;;;;;;21.63;13.10;;;;;;;17.70;71.74;101252.63;5092471;28;20043;-59
2022/07/30 02:14:25;;;;;;;24.33;13.27;;;;;;;17.66;71.16;101257.56;5093825;28;20039;-59
2022/07/30 02:16:57;;;;;;;29.52;13.32;;;;;;;17.56;71.79;101270.44;5093945;28;20398;-59
2022/07/30 02:19:31;;;;;;;24.55;13.65;;;;;;;17.67;71.54;101263.78;5094034;28;20519;-59
2022/07/30 02:22:04;;;;;;;30.90;13.63;;;;;;;17.55;71.86;101266.91;5093784;28;20044;-59
2022/07/30 02:24:33;;;;;;;23.48;12.95;;;;;;;17.63;71.57;101269.50;5093430;28;20043;-60
2022/07/30 02:27:06;;;;;;;26.42;13.35;;;;;;;17.56;71.49;101265.91;5093475;28;20040;-59
2022/07/30 02:29:35;;;;;;;25.40;13.93;;;;;;;17.57;71.33;101269.41;5093582;28;20117;-60
2022/07/30 02:32:08;;;;;;;29.23;13.68;;;;;;;17.53;71.44;101268.94;5093374;28;20535;-59
2022/07/30 02:34:39;;;;;;;28.67;13.10;;;;;;;17.53;71.63;101268.94;5093279;28;20661;-60
2022/07/30 02:37:08;;;;;;;26.02;13.20;;;;;;;17.48;71.38;101274.03;5093130;28;20044;-59
2022/07/30 02:39:38;;;;;;;28.08;13.55;;;;;;;17.48;72.09;101273.22;5093414;28;20427;-60
2022/07/30 02:42:06;;;;;;;26.15;13.88;;;;;;;17.45;71.87;101266.38;5093422;28;20040;-60
2022/07/30 02:44:37;;;;;;;27.05;14.07;;;;;;;17.41;71.44;101270.47;5093634;28;20143;-60
2022/07/30 02:47:04;;;;;;;28.10;13.63;;;;;;;17.34;72.32;101278.41;5092764;28;20040;-60
2022/07/30 02:49:51;;;;;;;27.10;13.82;;;;;;;17.31;71.82;101284.13;5111086;27;20383;-61
2022/07/30 02:52:19;;;;;;;23.75;13.32;;;;;;;17.34;72.27;101277.59;5108485;28;20389;-59
2022/07/30 02:54:48;;;;;;;24.73;14.32;;;;;;;17.26;72.49;101271.31;5110983;28;20055;-60
2022/07/30 02:57:16;;;;;;;27.45;14.82;;;;;;;17.29;72.68;101272.78;5110155;28;20052;-60
2022/07/30 02:59:43;;;;;;;23.85;14.02;;;;;;;17.21;73.03;101276.38;5110991;28;20044;-59
2022/07/30 03:02:12;;;;;;;29.85;14.15;;;;;;;17.23;72.57;101278.88;5110787;28;20048;-59
2022/07/30 03:04:40;;;;;;;29.63;14.85;;;;;;;17.13;73.07;101276.47;5110268;28;20048;-61
2022/07/30 03:07:09;;;;;;;25.13;15.02;;;;;;;17.11;73.42;101273.13;5110703;28;20455;-59
2022/07/30 03:09:40;;;;;;;27.45;14.73;;;;;;;17.09;73.46;101275.16;5110884;28;20481;-59
2022/07/30 03:12:09;;;;;;;27.63;14.82;;;;;;;17.02;73.29;101279.59;5110562;28;20035;-59
2022/07/30 03:14:37;;;;;;;28.40;15.57;;;;;;;17.01;73.82;101281.44;5110812;28;20508;-59
2022/07/30 03:17:06;;;;;;;27.75;15.20;;;;;;;16.97;73.66;101276.63;5110303;28;20401;-59
2022/07/30 03:19:37;;;;;;;32.30;16.13;;;;;;;17.04;73.50;101277.56;5110890;28;20036;-59
2022/07/30 03:22:06;;;;;;;32.35;15.80;;;;;;;16.99;73.95;101283.50;5110326;28;20047;-59
2022/07/30 03:24:35;;;;;;;27.05;15.48;;;;;;;16.89;74.26;101285.59;5110571;28;20052;-59
2022/07/30 03:27:03;;;;;;;30.17;14.65;;;;;;;16.96;74.09;101281.16;5110548;28;20555;-59
2022/07/30 03:29:31;;;;;;;24.83;14.63;;;;;;;16.93;74.47;101273.47;5110562;28;20401;-59
2022/07/30 03:31:59;;;;;;;25.13;14.63;;;;;;;16.99;74.83;101279.94;5106925;28;20131;-59
2022/07/30 03:34:26;;;;;;;32.28;15.70;;;;;;;16.94;75.07;101285.06;5111833;27;20044;-59
2022/07/30 03:36:54;;;;;;;33.63;15.98;;;;;;;16.97;74.43;101290.88;5110146;28;20047;-59
2022/07/30 03:39:22;;;;;;;25.00;15.18;;;;;;;16.93;74.95;101280.69;5110245;28;20040;-59
2022/07/30 03:41:50;;;;;;;31.30;16.10;;;;;;;16.94;75.25;101287.75;5109062;28;20044;-59
2022/07/30 03:44:17;;;;;;;26.92;16.40;;;;;;;16.94;74.97;101288.56;5109799;28;20054;-59
2022/07/30 03:46:45;;;;;;;33.10;17.10;;;;;;;16.79;75.54;101285.81;5109997;28;20044;-59
2022/07/30 03:49:12;;;;;;;29.33;17.17;;;;;;;16.72;76.13;101298.28;5109468;28;20156;-59
2022/07/30 03:51:45;;;;;;;33.38;17.25;;;;;;;16.63;76.49;101294.84;5109688;28;20516;-59
2022/07/30 03:54:14;;;;;;;32.13;17.67;;;;;;;16.45;77.48;101303.19;5109602;28;20051;-59
2022/07/30 03:57:03;;;;;;;33.03;16.83;;;;;;;16.46;77.53;101304.84;5109810;28;20493;-59
2022/07/30 03:59:38;;;;;;;32.72;17.10;;;;;;;16.48;77.56;101297.47;5104882;28;20182;-59
2022/07/30 04:02:04;;;;;;;31.65;18.10;;;;;;;16.43;77.77;101310.56;5096268;28;20616;-59
2022/07/30 04:04:51;;;;;;;31.95;18.05;;;;;;;16.44;78.75;101311.38;5094966;28;20097;-59
2022/07/30 04:07:18;;;;;;;43.33;17.67;;;;;;;16.44;79.00;101314.88;5095752;28;20127;-59
2022/07/30 04:09:44;;;;;;;33.90;18.52;;;;;;;16.57;77.84;101310.78;5095651;28;20432;-59
2022/07/30 04:12:28;;;;;;;35.15;18.38;;;;;;;16.58;78.00;101309.78;5095952;28;20080;-59
2022/07/30 04:14:56;;;;;;;34.33;17.85;;;;;;;16.60;78.18;101313.94;5095765;28;20048;-62
2022/07/30 04:17:43;;;;;;;45.35;20.23;;;;;;;16.48;78.48;101320.72;5095841;28;20055;-61
2022/07/30 04:20:16;;;;;;;36.17;18.15;;;;;;;16.48;78.93;101331.44;5095537;28;20398;-59
2022/07/30 04:22:44;;;;;;;44.75;19.45;;;;;;;16.41;79.41;101330.47;5095805;28;20410;-60
2022/07/30 04:25:13;;;;;;;34.78;20.02;;;;;;;16.27;80.34;101338.28;5094388;28;20048;-58
2022/07/30 04:27:40;;;;;;;40.97;19.48;;;;;;;16.27;80.24;101335.59;5095591;28;20089;-57
2022/07/30 04:30:07;;;;;;;40.22;19.42;;;;;;;16.34;80.33;101340.25;5095600;28;20089;-58
2022/07/30 04:32:37;;;;;;;40.10;20.13;;;;;;;16.39;80.33;101346.75;5095798;28;20044;-58
2022/07/30 04:35:32;;;;;;;39.40;18.70;;;;;;;16.41;80.07;101354.56;5094085;28;20046;-58
2022/07/30 04:38:12;;;;;;;38.55;20.02;;;;;;;16.50;79.97;101354.34;5095479;28;20520;-58
2022/07/30 04:40:41;;;;;;;40.10;18.95;;;;;;;16.54;80.12;101348.66;5095496;28;20063;-59
2022/07/30 04:43:08;;;;;;;41.03;20.70;;;;;;;16.43;80.40;101352.56;5095586;28;20052;-59
2022/07/30 04:45:38;;;;;;;40.17;21.40;;;;;;;16.46;80.37;101358.41;5095368;28;20048;-59
2022/07/30 04:48:06;;;;;;;45.28;23.02;;;;;;;16.40;81.25;101355.59;5094728;28;20055;-59
2022/07/30 04:50:50;;;;;;;42.13;21.90;;;;;;;16.38;81.56;101355.78;5055498;27;20399;-58
2022/07/30 04:53:19;;;;;;;42.95;21.55;;;;;;;16.28;82.28;101361.38;5045198;28;20045;-58
2022/07/30 04:55:52;;;;;;;40.70;22.25;;;;;;;16.29;82.60;101365.69;5046471;28;20053;-58
2022/07/30 04:58:23;;;;;;;49.15;22.98;;;;;;;16.30;83.07;101362.03;5046374;27;20072;-58
2022/07/30 05:00:54;;;;;;;42.22;23.77;;;;;;;16.23;83.71;101365.59;5046841;27;20057;-58
2022/07/30 05:03:26;;;;;;;46.55;23.23;;;;;;;16.17;84.54;101366.28;5045994;28;20037;-58
2022/07/30 05:05:54;;;;;;;42.28;23.63;;;;;;;16.32;83.99;101367.19;5046502;28;20037;-58
2022/07/30 05:08:24;;;;;;;46.90;24.93;;;;;;;16.35;83.98;101374.84;5046637;28;20077;-58
2022/07/30 05:10:51;;;;;;;45.72;24.00;;;;;;;16.27;84.36;101369.56;5046923;28;20049;-58
2022/07/30 05:13:18;;;;;;;52.28;25.80;;;;;;;16.25;84.82;101383.13;5046533;28;20053;-58
2022/07/30 05:15:45;;;;;;;48.80;26.23;;;;;;;16.23;85.19;101387.00;5046374;28;20049;-58
2022/07/30 05:18:15;;;;;;;52.78;26.13;;;;;;;16.28;85.13;101384.59;5045054;28;20120;-58
2022/07/30 05:20:43;;;;;;;51.60;25.60;;;;;;;16.26;85.35;101381.28;5046829;28;20049;-59
2022/07/30 05:23:14;;;;;;;57.80;27.63;;;;;;;16.28;85.60;101388.13;5046587;28;20094;-59
2022/07/30 05:25:48;;;;;;;52.60;26.20;;;;;;;16.29;85.47;101384.44;5046552;28;20053;-59
2022/07/30 05:28:26;;;;;;;53.85;26.60;;;;;;;16.21;86.01;101386.31;5046048;28;20371;-58
2022/07/30 05:30:53;;;;;;;53.47;27.85;;;;;;;16.14;86.68;101377.34;5045692;28;20070;-58
2022/07/30 05:33:21;;;;;;;56.42;27.63;;;;;;;16.11;87.09;101382.00;5046065;28;20037;-59
2022/07/30 05:35:49;;;;;;;55.88;28.52;;;;;;;16.13;87.04;101381.84;5046299;28;20045;-60
2022/07/30 05:38:17;;;;;;;59.15;28.17;;;;;;;16.09;87.20;101384.03;5046404;28;20053;-59
2022/07/30 05:40:57;;;;;;;54.90;27.05;;;;;;;16.18;87.15;101389.38;5046451;28;20132;-59
2022/07/30 05:43:43;;;;;;;53.53;27.25;;;;;;;16.26;87.18;101391.97;5046005;28;20052;-59
2022/07/30 05:46:11;;;;;;;50.75;26.40;;;;;;;16.45;86.50;101391.53;5045930;28;20436;-59
2022/07/30 05:48:38;;;;;;;56.65;28.63;;;;;;;16.48;86.82;101395.69;5045851;28;20056;-59
2022/07/30 05:51:04;;;;;;;58.33;28.70;;;;;;;16.41;87.30;101398.28;5046247;28;20061;-58
2022/07/30 05:53:31;;;;;;;59.05;29.23;;;;;;;16.47;87.58;101397.56;5046107;28;20049;-59
2022/07/30 05:56:18;;;;;;;50.65;27.85;;;;;;;16.60;86.99;101407.69;5045917;28;20230;-59
2022/07/30 05:58:53;;;;;;;61.10;30.38;;;;;;;16.60;86.96;101398.81;5045820;28;20043;-59
2022/07/30 06:01:34;;;;;;;58.72;28.67;;;;;;;16.62;87.46;101411.00;5036017;28;20495;-59
2022/07/30 06:04:07;;;;;;;63.53;31.75;;;;;;;16.59;87.45;101410.53;5032449;28;20056;-59
2022/07/30 06:06:42;;;;;;;61.67;29.58;;;;;;;16.60;87.32;101406.84;5028108;28;20049;-59
2022/07/30 06:09:09;;;;;;;55.97;29.85;;;;;;;16.70;86.88;101410.97;5031361;28;20118;-59
2022/07/30 06:11:36;;;;;;;65.50;30.00;;;;;;;16.75;87.12;101412.28;5032641;28;20098;-59
2022/07/30 06:14:03;;;;;;;66.05;29.75;;;;;;;16.62;87.56;101416.38;5032503;28;20054;-59
2022/07/30 06:16:31;;;;;;;58.05;29.25;;;;;;;16.62;87.50;101419.03;5032006;28;20046;-60
2022/07/30 06:18:57;;;;;;;60.70;29.67;;;;;;;16.58;87.26;101423.09;5032612;28;20046;-60
2022/07/30 06:21:37;;;;;;;55.65;29.80;;;;;;;16.54;87.82;101420.97;5032307;28;20050;-60
2022/07/30 06:24:08;;;;;;;56.00;29.70;;;;;;;16.66;87.13;101422.19;5032319;28;20054;-60
2022/07/30 06:26:42;;;;;;;47.55;27.77;;;;;;;16.61;86.94;101422.75;5031995;28;20083;-60
2022/07/30 06:29:10;;;;;;;58.42;28.48;;;;;;;16.80;85.79;101428.66;5031075;28;20041;-60
2022/07/30 06:31:38;;;;;;;53.17;28.90;;;;;;;16.92;85.23;101423.72;5031614;28;20523;-60
2022/07/30 06:34:06;;;;;;;56.28;28.17;;;;;;;16.98;85.13;101431.06;5032282;28;20053;-60
2022/07/30 06:36:38;;;;;;;54.40;28.35;;;;;;;17.16;84.09;101433.44;5031859;28;20067;-60
2022/07/30 06:39:20;;;;;;;;;;;;;;;17.20;84.41;101432.88;5032477;28;20029;-60
2022/07/30 06:42:07;;;;;;;50.70;26.45;;;;;;;17.25;83.49;101433.19;5031831;28;19921;-60
2022/07/30 06:44:53;;;;;;;50.00;26.90;;;;;;;17.34;82.82;101428.56;5031784;28;20482;-59
2022/07/30 06:47:27;;;;;;;50.10;25.95;;;;;;;17.21;82.82;101436.41;5031524;28;20044;-60
2022/07/30 06:49:55;;;;;;;46.90;25.15;;;;;;;17.28;82.03;101431.97;5032058;28;20098;-60
2022/07/30 06:52:23;;;;;;;49.00;26.20;;;;;;;17.27;81.81;101436.50;5031431;28;20050;-60
2022/07/30 06:54:51;;;;;;;49.45;25.90;;;;;;;17.42;82.01;101439.22;5043128;28;20045;-59
2022/07/30 06:57:31;;;;;;;48.42;25.02;;;;;;;17.44;80.89;101436.34;5050921;28;20090;-59
2022/07/30 07:00:00;;;;;;;50.25;25.80;;;;;;;17.55;80.78;101438.56;5043781;28;20049;-59
2022/07/30 07:02:31;;;;;;;;;;;;;;;17.65;79.12;101438.34;5031963;28;20051;-58
2022/07/30 07:05:10;;;;;;;52.75;24.63;;;;;;;17.57;79.49;101441.94;5031161;28;19925;-59
2022/07/30 07:07:39;;;;;;;45.08;23.70;;;;;;;17.67;79.69;101441.66;5031539;28;20491;-59
2022/07/30 07:10:09;;;;;;;67.20;24.83;;;;;;;17.73;78.44;101451.66;5023819;28;20050;-60
2022/07/30 07:12:56;;;;;;;46.53;23.60;;;;;;;17.84;77.99;101447.66;5030312;28;20052;-60
2022/07/30 07:15:23;;;;;;;47.53;23.08;;;;;;;17.76;77.42;101448.59;5030872;28;20487;-59
2022/07/30 07:17:50;;;;;;;41.17;24.60;;;;;;;17.75;77.84;101444.25;5031373;28;20427;-59
2022/07/30 07:20:25;;;;;;;46.13;23.95;;;;;;;17.80;78.07;101455.25;5029976;28;20333;-59
2022/07/30 07:22:59;;;;;;;54.50;24.15;;;;;;;17.88;77.19;101449.00;5031546;28;20083;-59
2022/07/30 07:25:26;;;;;;;47.05;23.92;;;;;;;17.88;78.18;101456.22;5031473;28;20491;-59
2022/07/30 07:27:53;;;;;;;43.42;23.02;;;;;;;17.80;77.62;101452.56;5031295;28;20057;-59
2022/07/30 07:30:20;;;;;;;45.25;23.63;;;;;;;17.88;77.34;101457.03;5031175;28;20086;-59
2022/07/30 07:32:46;;;;;;;43.55;22.88;;;;;;;17.84;77.89;101451.22;5031347;28;20053;-59
2022/07/30 07:35:14;;;;;;;42.13;24.02;;;;;;;17.93;78.21;101459.19;5026495;28;20045;-59
2022/07/30 07:37:46;;;;;;;39.42;22.05;;;;;;;18.03;76.87;101459.75;5024316;28;20512;-59
2022/07/30 07:40:19;;;;;;;44.30;21.33;;;;;;;18.01;76.02;101464.47;5030864;28;20049;-59
2022/07/30 07:42:46;;;;;;;43.38;21.98;;;;;;;17.99;77.27;101458.44;5030869;28;20055;-59
2022/07/30 07:45:16;;;;;;;43.45;21.52;;;;;;;17.86;76.84;101456.41;5030750;28;20045;-59
2022/07/30 07:47:50;;;;;;;37.92;21.30;;;;;;;17.94;76.60;101450.97;5030796;28;20034;-59
2022/07/30 07:50:31;;;;;;;42.30;20.63;;;;;;;17.90;76.50;101460.41;5030665;28;20049;-59
2022/07/30 07:52:58;;;;;;;35.72;20.85;;;;;;;18.04;76.30;101458.72;5031005;28;20818;-60
2022/07/30 07:55:25;;;;;;;39.97;21.38;;;;;;;18.09;76.34;101458.19;5030675;28;20411;-59
2022/07/30 07:57:52;;;;;;;46.83;20.48;;;;;;;18.01;75.82;101459.94;5030871;28;20045;-59
2022/07/30 08:00:19;;;;;;;44.53;21.13;;;;;;;18.07;76.45;101458.34;5030501;28;20106;-59
2022/07/30 08:02:48;;;;;;;36.53;19.83;;;;;;;18.21;75.10;101454.81;5030750;28;20082;-59
2022/07/30 08:05:15;;;;;;;33.33;19.73;;;;;;;18.23;75.99;101444.72;5030078;28;20456;-60
2022/07/30 08:07:50;;;;;;;46.22;21.55;;;;;;;18.25;74.82;101449.91;5030728;28;20074;-59
2022/07/30 08:10:37;;;;;;;37.78;19.95;;;;;;;18.37;74.47;101447.56;5030168;28;20116;-59
2022/07/30 08:13:23;;;;;;;39.45;20.70;;;;;;;18.23;75.12;101451.97;5030194;28;20049;-60
2022/07/30 08:16:10;;;;;;;43.50;20.30;;;;;;;18.40;74.19;101456.06;5030015;28;20045;-59
2022/07/30 08:18:58;;;;;;;35.33;18.85;;;;;;;18.40;74.63;101442.66;5030491;28;20403;-59
2022/07/30 08:21:30;;;;;;;38.00;19.83;;;;;;;18.37;74.82;101451.09;5030319;28;20046;-59
2022/07/30 08:23:57;;;;;;;34.03;19.15;;;;;;;18.43;74.99;101444.13;5030333;28;20045;-59
2022/07/30 08:26:23;;;;;;;41.80;19.35;;;;;;;18.60;75.27;101447.41;5030029;28;20037;-59
2022/07/30 08:28:50;;;;;;;39.33;20.05;;;;;;;18.71;73.89;101446.09;5030492;28;20094;-60
2022/07/30 08:31:17;;;;;;;46.33;20.60;;;;;;;18.83;73.99;101447.28;5029664;28;20086;-60
2022/07/30 08:33:44;;;;;;;40.72;18.38;;;;;;;18.90;73.23;101441.97;5030519;28;20041;-59
2022/07/30 08:36:12;;;;;;;37.25;17.67;;;;;;;19.08;72.74;101450.44;5030127;28;20494;-59
2022/07/30 08:38:39;;;;;;;44.25;19.58;;;;;;;19.07;72.70;101451.44;5030350;28;20090;-59
2022/07/30 08:41:07;;;;;;;36.80;19.48;;;;;;;19.17;72.20;101454.66;5030321;28;20047;-59
2022/07/30 08:43:36;;;;;;;37.85;19.13;;;;;;;19.41;71.15;101452.56;5030167;28;20124;-59
2022/07/30 08:46:09;;;;;;;40.72;17.67;;;;;;;19.52;70.71;101456.56;5029964;28;20078;-59
2022/07/30 08:48:57;;;;;;;27.92;15.70;;;;;;;19.59;69.33;101457.44;5029887;28;20144;-59
2022/07/30 08:51:24;;;;;;;35.42;15.18;;;;;;;19.80;67.20;101453.06;5029429;28;20072;-59
2022/07/30 08:54:11;;;;;;;32.90;15.40;;;;;;;19.87;68.79;101454.75;5027067;28;20042;-59
2022/07/30 08:56:39;;;;;;;33.83;14.85;;;;;;;19.83;66.90;101456.19;5029618;28;20379;-59
2022/07/30 08:59:06;;;;;;;28.13;14.07;;;;;;;20.02;65.47;101456.50;5030161;28;20053;-59
2022/07/30 09:01:33;;;;;;;36.50;13.65;;;;;;;20.18;65.12;101458.84;5030155;28;20403;-59
2022/07/30 09:04:00;;;;;;;29.25;14.02;;;;;;;20.18;66.22;101447.25;5029577;28;20057;-59
2022/07/30 09:06:27;;;;;;;31.70;13.32;;;;;;;20.40;65.33;101447.97;5025747;28;20128;-59
2022/07/30 09:08:54;;;;;;;23.52;12.38;;;;;;;20.39;65.17;101447.13;5029734;28;20125;-60
2022/07/30 09:11:21;;;;;;;26.85;11.50;;;;;;;20.54;63.07;101455.06;5021217;28;20066;-60
2022/07/30 09:13:49;;;;;;;23.40;11.13;;;;;;;20.70;63.00;101464.63;5009669;28;20456;-60
2022/07/30 09:16:20;;;;;;;26.05;11.45;;;;;;;20.61;62.82;101458.63;5010229;28;20050;-59
2022/07/30 09:18:48;;;;;;;29.02;11.73;;;;;;;20.50;62.60;101457.31;5010398;28;20046;-60
2022/07/30 09:24:08;;;;;;;30.48;12.10;;;;;;;20.84;61.21;101460.13;5110113;27;20710;-54
2022/07/30 09:26:57;;;;;;;22.85;10.48;;;;;;;20.74;61.75;101462.38;5110307;28;20132;-52
2022/07/30 09:29:56;;;;;;;27.25;9.77;;;;;;;20.85;59.64;101459.91;5107865;28;20051;-50
2022/07/30 09:32:49;;;;;;;21.83;9.65;;;;;;;21.01;60.41;101460.56;5108794;28;20518;-48
2022/07/30 09:35:36;;;;;;;18.85;8.95;;;;;;;21.11;58.88;101460.16;5110498;28;20044;-48
2022/07/30 09:38:12;;;;;;;19.85;8.50;;;;;;;21.07;59.28;101463.25;5110869;28;20044;-48
2022/07/30 09:40:59;;;;;;;22.17;10.00;;;;;;;21.18;59.21;101456.44;5110454;28;20051;-56
2022/07/30 09:43:47;;;;;;;24.52;10.15;;;;;;;21.27;57.53;101468.66;5113997;28;20051;-56
2022/07/30 09:46:50;;;;;;;21.35;9.90;;;;;;;21.42;56.93;101460.34;5110338;28;20172;-55
2022/07/30 09:49:27;;;;;;;23.23;9.90;;;;;;;21.37;57.59;101468.25;5109314;28;20047;-59
2022/07/30 09:51:55;;;;;;;23.17;10.55;;;;;;;21.15;57.53;101459.53;5114375;28;20108;-59
2022/07/30 09:54:43;;;;;;;28.13;10.25;;;;;;;21.00;58.13;101467.00;5118677;27;20435;-61
2022/07/30 09:57:10;;;;;;;23.50;9.25;;;;;;;21.37;55.95;101470.13;5095426;28;20115;-61
2022/07/30 09:59:37;;;;;;;20.63;9.32;;;;;;;21.53;54.48;101477.00;5114893;27;20044;-60
2022/07/30 10:02:03;;;;;;;22.33;8.45;;;;;;;21.63;54.00;101467.44;5119027;27;20048;-60
2022/07/30 10:04:50;;;;;;;17.98;6.90;;;;;;;21.97;52.86;101470.88;5109286;28;20055;-60
2022/07/30 10:07:19;;;;;;;18.48;6.43;;;;;;;22.23;51.26;101456.47;5114645;28;20807;-60
2022/07/30 10:09:47;;;;;;;20.00;6.10;;;;;;;22.51;49.91;101455.31;5108842;28;20048;-60
2022/07/30 10:12:19;;;;;;;17.23;6.00;;;;;;;22.76;48.58;101452.69;5108916;28;20444;-59
2022/07/30 10:14:51;;;;;;;17.47;7.40;;;;;;;22.81;48.35;101452.03;5110078;28;20066;-61
2022/07/30 10:17:19;;;;;;;20.10;7.03;;;;;;;22.91;48.44;101449.66;5110075;28;20507;-61
2022/07/30 10:20:08;;;;;;;17.60;6.78;;;;;;;23.36;48.19;101454.97;5109878;28;20501;-60
2022/07/30 10:22:56;;;;;;;19.67;6.63;;;;;;;23.39;47.05;101453.69;5109378;28;20052;-61
2022/07/30 10:25:44;;;;;;;18.10;6.88;;;;;;;23.66;46.30;101456.97;5109278;28;20044;-63
2022/07/30 10:28:30;;;;;;;15.95;5.80;;;;;;;23.74;45.64;101456.69;5109399;28;20047;-61
2022/07/30 10:30:59;;;;;;;14.35;6.10;;;;;;;23.64;44.61;101456.38;5108599;28;20052;-61
2022/07/30 10:33:29;;;;;;;18.60;6.53;;;;;;;23.82;43.76;101465.59;5105489;28;20075;-61
2022/07/30 10:35:56;;;;;;;14.75;5.30;;;;;;;23.90;41.29;101459.88;5096129;28;20401;-61
2022/07/30 10:38:29;;;;;;;14.07;5.00;;;;;;;23.79;43.48;101461.41;5096203;28;20036;-60
2022/07/30 10:41:03;;;;;;;15.20;5.10;;;;;;;24.02;42.86;101459.97;5096240;28;20054;-60
2022/07/30 10:43:57;;;;;;;15.25;6.18;;;;;;;24.15;42.40;101459.78;5094643;28;20044;-60
2022/07/30 10:47:04;;;;;;;18.50;5.03;;;;;;;24.18;42.36;101459.34;5076157;28;20234;-59
2022/07/30 10:49:31;;;;;;;15.18;5.03;;;;;;;24.22;43.03;101457.00;5078094;28;20502;-60
2022/07/30 10:51:58;;;;;;;15.57;5.05;;;;;;;24.20;43.39;101461.84;5075453;28;20048;-60
2022/07/30 10:57:18;;;;;;;13.10;5.20;;;;;;;24.71;41.16;101465.97;5095157;27;20396;-59
2022/07/30 11:02:30;;;;;;;13.18;4.90;;;;;;;24.18;41.83;101456.66;5110386;27;20384;-59
2022/07/30 11:07:53;;;;;;;13.13;4.55;;;;;;;24.23;39.53;101454.09;5110924;27;20358;-60
2022/07/30 11:10:39;;;;;;;13.57;4.70;;;;;;;24.53;39.18;101445.97;5110851;28;20079;-59
2022/07/30 11:13:07;;;;;;;18.52;4.47;;;;;;;24.48;39.44;101445.81;5070397;28;20421;-59
2022/07/30 11:15:58;;;;;;;14.70;4.50;;;;;;;24.46;37.80;101438.97;5068872;28;20167;-59
2022/07/30 11:18:26;;;;;;;16.10;3.97;;;;;;;24.48;37.41;101439.56;5069856;28;20052;-61
2022/07/30 11:21:16;;;;;;;9.82;3.47;;;;;;;24.68;37.47;101442.00;5070194;28;20128;-60
2022/07/30 11:23:45;;;;;;;13.00;4.20;;;;;;;25.00;38.84;101436.31;5078664;28;20040;-60
2022/07/30 11:29:37;;;;;;;13.20;4.95;;;;;;;24.76;39.26;101446.28;5110699;27;20385;-59
2022/07/30 11:32:27;;;;;;;11.98;4.53;;;;;;;24.72;38.45;101437.78;5108867;28;20459;-59
2022/07/30 11:35:16;;;;;;;20.08;4.40;;;;;;;25.02;36.30;101445.06;5110289;28;20563;-60
2022/07/30 11:38:07;;;;;;;12.93;4.35;;;;;;;24.64;36.29;101433.50;5110600;28;20405;-58
2022/07/30 11:40:40;;;;;;;13.88;4.20;;;;;;;24.83;35.80;101436.16;5110389;28;20043;-59
2022/07/30 11:43:28;;;;;;;15.13;4.00;;;;;;;25.10;36.51;101436.56;5110640;28;20048;-59
2022/07/30 11:46:18;;;;;;;15.18;4.55;;;;;;;25.14;36.22;101442.34;5109965;28;20375;-59
2022/07/30 11:49:04;;;;;;;9.88;4.47;;;;;;;25.26;36.22;101443.22;5109859;28;20650;-59
2022/07/30 11:51:48;;;;;;;9.98;4.25;;;;;;;25.62;35.07;101442.16;5110371;28;20040;-59
2022/07/30 11:54:15;;;;;;;11.57;4.20;;;;;;;25.70;34.89;101442.84;5109584;28;20485;-59